Riverlea, Ohio
Current Conditions -  °F | °C
As of 4:04 AM on Tuesday 21 Oct 2014 (Local Time) from KOSU Reporting Station
Haze Haze  
Wind Chill: 46°   Ceiling: 7000
Heat Index: 48°   Visibility: 4mi
Dew Point: 47°   Wind: 5mph
Humidity: 96%   Direction: 280°W
Pressure: 29.89"   Gusts: NA
Location:  40.0994°N, 83.0166°W
Report Text: KOSU 210804Z AUTO 28004KT 4SM BR SCT022 OVC070 09/08 A2989 RMK AO2 T00890083
Loading
Personal Weather Stations






























Interactive Weather Map
Tropical Storm Tracking
New forecast layout! Learn more

10-Day Weather Forecast

Advertisements
Track Severe Weather on mobile